sensor_id;sensor_type;location;lat;lon;timestamp;P1;durP1;ratioP1;P2;durP2;ratioP2
36433;SDS011;31691;51.972;5.672;2023-08-21T00:00:07;14.35;;;13.05;;
36433;SDS011;31691;51.972;5.672;2023-08-21T00:05:10;14.65;;;13.15;;
36433;SDS011;31691;51.972;5.672;2023-08-21T00:10:12;14.68;;;13.25;;
36433;SDS011;31691;51.972;5.672;2023-08-21T00:15:15;15.00;;;13.60;;
36433;SDS011;31691;51.972;5.672;2023-08-21T00:20:18;14.18;;;12.98;;
36433;SDS011;31691;51.972;5.672;2023-08-21T00:25:21;14.38;;;12.98;;
36433;SDS011;31691;51.972;5.672;2023-08-21T00:30:23;15.18;;;13.10;;
36433;SDS011;31691;51.972;5.672;2023-08-21T00:35:26;14.98;;;13.05;;
36433;SDS011;31691;51.972;5.672;2023-08-21T00:40:28;14.68;;;13.15;;
36433;SDS011;31691;51.972;5.672;2023-08-21T00:45:32;15.23;;;13.18;;
36433;SDS011;31691;51.972;5.672;2023-08-21T00:50:34;14.35;;;12.80;;
36433;SDS011;31691;51.972;5.672;2023-08-21T00:55:37;13.95;;;12.75;;
36433;SDS011;31691;51.972;5.672;2023-08-21T01:00:41;14.10;;;12.73;;
36433;SDS011;31691;51.972;5.672;2023-08-21T01:05:46;14.07;;;12.63;;
36433;SDS011;31691;51.972;5.672;2023-08-21T01:16:00;13.65;;;12.45;;
36433;SDS011;31691;51.972;5.672;2023-08-21T01:21:06;13.18;;;12.07;;
36433;SDS011;31691;51.972;5.672;2023-08-21T01:26:08;14.95;;;13.32;;
36433;SDS011;31691;51.972;5.672;2023-08-21T01:36:21;15.52;;;10.55;;
36433;SDS011;31691;51.972;5.672;2023-08-21T01:41:24;12.25;;;11.00;;
36433;SDS011;31691;51.972;5.672;2023-08-21T01:46:27;12.15;;;10.95;;
36433;SDS011;31691;51.972;5.672;2023-08-21T01:51:29;12.30;;;11.05;;
36433;SDS011;31691;51.972;5.672;2023-08-21T01:56:32;11.98;;;10.90;;
36433;SDS011;31691;51.972;5.672;2023-08-21T02:01:34;11.85;;;10.80;;
36433;SDS011;31691;51.972;5.672;2023-08-21T02:06:37;14.93;;;11.93;;
36433;SDS011;31691;51.972;5.672;2023-08-21T02:11:39;13.93;;;11.27;;
36433;SDS011;31691;51.972;5.672;2023-08-21T02:16:41;12.15;;;10.35;;
36433;SDS011;31691;51.972;5.672;2023-08-21T02:21:43;11.60;;;9.88;;
36433;SDS011;31691;51.972;5.672;2023-08-21T02:26:46;11.90;;;10.80;;
36433;SDS011;31691;51.972;5.672;2023-08-21T02:31:48;12.38;;;11.18;;
36433;SDS011;31691;51.972;5.672;2023-08-21T02:36:50;15.38;;;11.80;;
36433;SDS011;31691;51.972;5.672;2023-08-21T02:41:52;11.90;;;11.00;;
36433;SDS011;31691;51.972;5.672;2023-08-21T02:46:55;16.55;;;11.93;;
36433;SDS011;31691;51.972;5.672;2023-08-21T02:51:57;12.63;;;11.38;;
36433;SDS011;31691;51.972;5.672;2023-08-21T02:56:59;12.23;;;11.02;;
36433;SDS011;31691;51.972;5.672;2023-08-21T03:02:03;13.27;;;11.82;;
36433;SDS011;31691;51.972;5.672;2023-08-21T03:07:05;12.40;;;11.25;;
36433;SDS011;31691;51.972;5.672;2023-08-21T03:12:07;14.32;;;11.63;;
36433;SDS011;31691;51.972;5.672;2023-08-21T03:17:10;12.50;;;11.20;;
36433;SDS011;31691;51.972;5.672;2023-08-21T03:22:12;12.55;;;11.38;;
36433;SDS011;31691;51.972;5.672;2023-08-21T03:27:15;13.55;;;12.30;;
36433;SDS011;31691;51.972;5.672;2023-08-21T03:32:19;13.68;;;12.45;;
36433;SDS011;31691;51.972;5.672;2023-08-21T03:37:21;14.00;;;12.60;;
36433;SDS011;31691;51.972;5.672;2023-08-21T03:42:23;13.45;;;12.13;;
36433;SDS011;31691;51.972;5.672;2023-08-21T03:47:26;13.93;;;12.07;;
36433;SDS011;31691;51.972;5.672;2023-08-21T03:52:28;12.57;;;11.63;;
36433;SDS011;31691;51.972;5.672;2023-08-21T03:57:31;12.75;;;11.40;;
36433;SDS011;31691;51.972;5.672;2023-08-21T04:02:33;12.13;;;11.23;;
36433;SDS011;31691;51.972;5.672;2023-08-21T04:07:35;12.95;;;11.73;;
36433;SDS011;31691;51.972;5.672;2023-08-21T04:12:38;14.30;;;12.10;;
36433;SDS011;31691;51.972;5.672;2023-08-21T04:17:41;13.93;;;12.52;;
36433;SDS011;31691;51.972;5.672;2023-08-21T04:22:43;14.15;;;12.13;;
36433;SDS011;31691;51.972;5.672;2023-08-21T04:27:46;14.50;;;13.23;;
36433;SDS011;31691;51.972;5.672;2023-08-21T04:32:48;14.48;;;13.05;;
36433;SDS011;31691;51.972;5.672;2023-08-21T04:37:50;15.68;;;14.18;;
36433;SDS011;31691;51.972;5.672;2023-08-21T04:42:53;15.85;;;13.85;;
36433;SDS011;31691;51.972;5.672;2023-08-21T04:47:55;14.15;;;13.00;;
36433;SDS011;31691;51.972;5.672;2023-08-21T04:52:59;14.68;;;13.10;;
36433;SDS011;31691;51.972;5.672;2023-08-21T04:58:02;14.98;;;13.70;;
36433;SDS011;31691;51.972;5.672;2023-08-21T05:03:05;14.70;;;13.40;;
36433;SDS011;31691;51.972;5.672;2023-08-21T05:08:08;14.98;;;13.57;;
36433;SDS011;31691;51.972;5.672;2023-08-21T05:13:10;16.80;;;13.40;;
36433;SDS011;31691;51.972;5.672;2023-08-21T05:18:12;16.63;;;13.65;;
36433;SDS011;31691;51.972;5.672;2023-08-21T05:23:15;15.88;;;14.15;;
36433;SDS011;31691;51.972;5.672;2023-08-21T05:28:17;18.77;;;14.95;;
36433;SDS011;31691;51.972;5.672;2023-08-21T05:33:20;16.13;;;14.45;;
36433;SDS011;31691;51.972;5.672;2023-08-21T05:38:22;15.00;;;13.50;;
36433;SDS011;31691;51.972;5.672;2023-08-21T05:43:24;14.68;;;13.38;;
36433;SDS011;31691;51.972;5.672;2023-08-21T05:48:26;14.45;;;13.00;;
36433;SDS011;31691;51.972;5.672;2023-08-21T05:53:28;16.75;;;13.52;;
36433;SDS011;31691;51.972;5.672;2023-08-21T05:58:31;15.43;;;12.90;;
36433;SDS011;31691;51.972;5.672;2023-08-21T06:03:34;15.93;;;14.30;;
36433;SDS011;31691;51.972;5.672;2023-08-21T06:08:36;16.05;;;14.07;;
36433;SDS011;31691;51.972;5.672;2023-08-21T06:13:38;18.83;;;15.13;;
36433;SDS011;31691;51.972;5.672;2023-08-21T06:18:41;20.27;;;15.68;;
36433;SDS011;31691;51.972;5.672;2023-08-21T06:23:43;16.30;;;14.60;;
36433;SDS011;31691;51.972;5.672;2023-08-21T06:28:45;17.05;;;15.45;;
36433;SDS011;31691;51.972;5.672;2023-08-21T06:33:47;19.50;;;15.63;;
36433;SDS011;31691;51.972;5.672;2023-08-21T06:38:49;17.35;;;15.63;;
36433;SDS011;31691;51.972;5.672;2023-08-21T06:43:52;16.02;;;14.40;;
36433;SDS011;31691;51.972;5.672;2023-08-21T06:48:54;16.35;;;13.88;;
36433;SDS011;31691;51.972;5.672;2023-08-21T06:53:56;14.98;;;13.13;;
36433;SDS011;31691;51.972;5.672;2023-08-21T06:58:58;16.67;;;14.60;;
36433;SDS011;31691;51.972;5.672;2023-08-21T07:04:00;17.05;;;15.43;;
36433;SDS011;31691;51.972;5.672;2023-08-21T07:09:03;18.15;;;16.20;;
36433;SDS011;31691;51.972;5.672;2023-08-21T07:14:05;18.08;;;16.30;;
36433;SDS011;31691;51.972;5.672;2023-08-21T07:19:07;19.55;;;15.60;;
36433;SDS011;31691;51.972;5.672;2023-08-21T07:24:10;17.45;;;15.82;;
36433;SDS011;31691;51.972;5.672;2023-08-21T07:29:12;19.63;;;16.00;;
36433;SDS011;31691;51.972;5.672;2023-08-21T07:34:14;16.90;;;15.13;;
36433;SDS011;31691;51.972;5.672;2023-08-21T07:39:16;16.85;;;15.27;;
36433;SDS011;31691;51.972;5.672;2023-08-21T07:44:19;16.17;;;14.57;;
36433;SDS011;31691;51.972;5.672;2023-08-21T07:49:21;19.88;;;16.63;;
36433;SDS011;31691;51.972;5.672;2023-08-21T07:54:23;16.92;;;15.38;;
36433;SDS011;31691;51.972;5.672;2023-08-21T07:59:26;18.58;;;16.45;;
36433;SDS011;31691;51.972;5.672;2023-08-21T08:04:28;17.50;;;15.80;;
36433;SDS011;31691;51.972;5.672;2023-08-21T08:09:30;18.45;;;16.58;;
36433;SDS011;31691;51.972;5.672;2023-08-21T08:14:32;18.15;;;16.30;;
36433;SDS011;31691;51.972;5.672;2023-08-21T08:19:35;18.35;;;16.23;;
36433;SDS011;31691;51.972;5.672;2023-08-21T08:24:37;17.25;;;15.48;;
36433;SDS011;31691;51.972;5.672;2023-08-21T08:29:39;18.90;;;16.05;;
36433;SDS011;31691;51.972;5.672;2023-08-21T08:34:41;16.15;;;14.60;;
36433;SDS011;31691;51.972;5.672;2023-08-21T08:39:45;16.63;;;15.00;;
36433;SDS011;31691;51.972;5.672;2023-08-21T08:44:48;18.27;;;16.10;;
36433;SDS011;31691;51.972;5.672;2023-08-21T08:49:51;16.08;;;14.43;;
36433;SDS011;31691;51.972;5.672;2023-08-21T08:54:56;16.73;;;15.13;;
36433;SDS011;31691;51.972;5.672;2023-08-21T09:00:00;17.00;;;15.50;;
36433;SDS011;31691;51.972;5.672;2023-08-21T09:05:03;16.83;;;15.18;;
36433;SDS011;31691;51.972;5.672;2023-08-21T09:10:12;17.45;;;15.50;;
36433;SDS011;31691;51.972;5.672;2023-08-21T09:15:16;17.63;;;16.00;;
36433;SDS011;31691;51.972;5.672;2023-08-21T09:20:18;18.88;;;15.60;;
36433;SDS011;31691;51.972;5.672;2023-08-21T09:25:20;17.50;;;15.73;;
36433;SDS011;31691;51.972;5.672;2023-08-21T09:30:23;17.25;;;15.00;;
36433;SDS011;31691;51.972;5.672;2023-08-21T09:35:25;20.98;;;16.33;;
36433;SDS011;31691;51.972;5.672;2023-08-21T09:40:27;19.85;;;16.75;;
36433;SDS011;31691;51.972;5.672;2023-08-21T09:45:30;21.90;;;17.48;;
36433;SDS011;31691;51.972;5.672;2023-08-21T09:50:32;21.67;;;18.08;;
36433;SDS011;31691;51.972;5.672;2023-08-21T09:55:36;20.48;;;18.20;;
36433;SDS011;31691;51.972;5.672;2023-08-21T10:00:40;20.38;;;16.02;;
36433;SDS011;31691;51.972;5.672;2023-08-21T10:05:43;18.13;;;15.65;;
36433;SDS011;31691;51.972;5.672;2023-08-21T10:10:47;17.65;;;15.95;;
36433;SDS011;31691;51.972;5.672;2023-08-21T10:15:49;16.50;;;14.90;;
36433;SDS011;31691;51.972;5.672;2023-08-21T10:20:52;17.92;;;15.40;;
36433;SDS011;31691;51.972;5.672;2023-08-21T10:25:55;18.10;;;16.23;;
36433;SDS011;31691;51.972;5.672;2023-08-21T10:31:25;16.77;;;14.98;;
36433;SDS011;31691;51.972;5.672;2023-08-21T10:41:55;19.52;;;15.32;;
36433;SDS011;31691;51.972;5.672;2023-08-21T10:52:28;18.27;;;16.38;;
36433;SDS011;31691;51.972;5.672;2023-08-21T10:57:32;18.00;;;16.30;;
36433;SDS011;31691;51.972;5.672;2023-08-21T11:02:36;15.65;;;14.25;;
36433;SDS011;31691;51.972;5.672;2023-08-21T11:07:41;15.70;;;14.43;;
36433;SDS011;31691;51.972;5.672;2023-08-21T11:12:53;18.83;;;14.73;;
36433;SDS011;31691;51.972;5.672;2023-08-21T11:17:58;21.90;;;15.60;;
36433;SDS011;31691;51.972;5.672;2023-08-21T11:23:04;15.88;;;14.27;;
36433;SDS011;31691;51.972;5.672;2023-08-21T11:28:08;16.98;;;15.30;;
36433;SDS011;31691;51.972;5.672;2023-08-21T11:33:12;18.42;;;15.15;;
36433;SDS011;31691;51.972;5.672;2023-08-21T11:38:16;16.83;;;15.27;;
36433;SDS011;31691;51.972;5.672;2023-08-21T11:43:20;16.10;;;14.70;;
36433;SDS011;31691;51.972;5.672;2023-08-21T11:48:22;16.40;;;14.73;;
36433;SDS011;31691;51.972;5.672;2023-08-21T11:53:36;16.00;;;14.50;;
36433;SDS011;31691;51.972;5.672;2023-08-21T11:58:41;16.25;;;14.55;;
36433;SDS011;31691;51.972;5.672;2023-08-21T12:03:44;18.13;;;15.48;;
36433;SDS011;31691;51.972;5.672;2023-08-21T12:08:46;16.88;;;15.32;;
36433;SDS011;31691;51.972;5.672;2023-08-21T12:13:49;18.20;;;16.40;;
36433;SDS011;31691;51.972;5.672;2023-08-21T12:18:53;18.08;;;16.42;;
36433;SDS011;31691;51.972;5.672;2023-08-21T12:23:58;18.65;;;16.10;;
36433;SDS011;31691;51.972;5.672;2023-08-21T12:29:00;17.50;;;15.77;;
36433;SDS011;31691;51.972;5.672;2023-08-21T12:34:04;17.10;;;15.60;;
36433;SDS011;31691;51.972;5.672;2023-08-21T12:39:06;17.35;;;15.85;;
36433;SDS011;31691;51.972;5.672;2023-08-21T12:44:08;16.80;;;15.07;;
36433;SDS011;31691;51.972;5.672;2023-08-21T12:49:11;16.83;;;15.32;;
36433;SDS011;31691;51.972;5.672;2023-08-21T12:54:14;16.73;;;15.10;;
36433;SDS011;31691;51.972;5.672;2023-08-21T12:59:16;16.48;;;14.73;;
36433;SDS011;31691;51.972;5.672;2023-08-21T13:04:21;17.27;;;15.25;;
36433;SDS011;31691;51.972;5.672;2023-08-21T13:09:23;17.60;;;15.90;;
36433;SDS011;31691;51.972;5.672;2023-08-21T13:14:26;16.10;;;14.70;;
36433;SDS011;31691;51.972;5.672;2023-08-21T13:19:33;16.95;;;15.25;;
36433;SDS011;31691;51.972;5.672;2023-08-21T13:24:35;17.15;;;15.40;;
36433;SDS011;31691;51.972;5.672;2023-08-21T13:29:37;18.00;;;15.80;;
36433;SDS011;31691;51.972;5.672;2023-08-21T13:34:41;16.40;;;15.00;;
36433;SDS011;31691;51.972;5.672;2023-08-21T13:39:43;16.77;;;15.18;;
36433;SDS011;31691;51.972;5.672;2023-08-21T13:44:46;16.77;;;15.10;;
36433;SDS011;31691;51.972;5.672;2023-08-21T13:49:48;17.02;;;15.40;;
36433;SDS011;31691;51.972;5.672;2023-08-21T13:54:50;16.10;;;14.85;;
36433;SDS011;31691;51.972;5.672;2023-08-21T13:59:52;16.88;;;15.27;;
36433;SDS011;31691;51.972;5.672;2023-08-21T14:04:54;16.55;;;14.98;;
36433;SDS011;31691;51.972;5.672;2023-08-21T14:09:56;16.90;;;15.40;;
36433;SDS011;31691;51.972;5.672;2023-08-21T14:14:59;17.20;;;15.65;;
36433;SDS011;31691;51.972;5.672;2023-08-21T14:20:03;17.15;;;15.65;;
36433;SDS011;31691;51.972;5.672;2023-08-21T14:25:05;17.30;;;15.80;;
36433;SDS011;31691;51.972;5.672;2023-08-21T14:30:08;17.23;;;15.63;;
36433;SDS011;31691;51.972;5.672;2023-08-21T14:35:11;17.52;;;16.05;;
36433;SDS011;31691;51.972;5.672;2023-08-21T14:40:13;17.05;;;15.40;;
36433;SDS011;31691;51.972;5.672;2023-08-21T14:45:16;17.60;;;15.73;;
36433;SDS011;31691;51.972;5.672;2023-08-21T14:50:19;17.30;;;15.75;;
36433;SDS011;31691;51.972;5.672;2023-08-21T14:55:21;18.13;;;16.42;;
36433;SDS011;31691;51.972;5.672;2023-08-21T15:00:23;17.73;;;16.23;;
36433;SDS011;31691;51.972;5.672;2023-08-21T15:05:26;17.02;;;15.63;;
36433;SDS011;31691;51.972;5.672;2023-08-21T15:10:29;17.00;;;15.60;;
36433;SDS011;31691;51.972;5.672;2023-08-21T15:15:31;16.90;;;15.40;;
36433;SDS011;31691;51.972;5.672;2023-08-21T15:20:33;16.77;;;15.18;;
36433;SDS011;31691;51.972;5.672;2023-08-21T15:25:35;16.70;;;15.23;;
36433;SDS011;31691;51.972;5.672;2023-08-21T15:30:38;18.23;;;16.55;;
36433;SDS011;31691;51.972;5.672;2023-08-21T15:35:40;17.23;;;15.70;;
36433;SDS011;31691;51.972;5.672;2023-08-21T15:40:42;18.13;;;16.40;;
36433;SDS011;31691;51.972;5.672;2023-08-21T15:45:46;18.52;;;16.83;;
36433;SDS011;31691;51.972;5.672;2023-08-21T15:50:48;19.20;;;17.30;;
36433;SDS011;31691;51.972;5.672;2023-08-21T15:55:50;19.10;;;17.10;;
36433;SDS011;31691;51.972;5.672;2023-08-21T16:00:53;19.38;;;17.48;;
36433;SDS011;31691;51.972;5.672;2023-08-21T16:05:55;18.60;;;16.60;;
36433;SDS011;31691;51.972;5.672;2023-08-21T16:10:57;18.58;;;16.67;;
36433;SDS011;31691;51.972;5.672;2023-08-21T16:15:59;17.70;;;16.15;;
36433;SDS011;31691;51.972;5.672;2023-08-21T16:21:02;18.08;;;16.48;;
36433;SDS011;31691;51.972;5.672;2023-08-21T16:26:05;18.85;;;16.83;;
36433;SDS011;31691;51.972;5.672;2023-08-21T16:31:07;19.08;;;17.38;;
36433;SDS011;31691;51.972;5.672;2023-08-21T16:36:10;19.25;;;17.45;;
36433;SDS011;31691;51.972;5.672;2023-08-21T16:41:12;18.90;;;17.05;;
36433;SDS011;31691;51.972;5.672;2023-08-21T16:46:14;19.48;;;17.55;;
36433;SDS011;31691;51.972;5.672;2023-08-21T16:51:16;18.40;;;16.70;;
36433;SDS011;31691;51.972;5.672;2023-08-21T16:56:19;18.67;;;16.95;;
36433;SDS011;31691;51.972;5.672;2023-08-21T17:01:21;18.45;;;16.55;;
36433;SDS011;31691;51.972;5.672;2023-08-21T17:06:24;19.88;;;17.15;;
36433;SDS011;31691;51.972;5.672;2023-08-21T17:11:26;18.67;;;16.70;;
36433;SDS011;31691;51.972;5.672;2023-08-21T17:16:28;18.67;;;16.52;;
36433;SDS011;31691;51.972;5.672;2023-08-21T17:21:30;20.45;;;16.65;;
36433;SDS011;31691;51.972;5.672;2023-08-21T17:26:32;18.80;;;17.13;;
36433;SDS011;31691;51.972;5.672;2023-08-21T17:31:35;18.33;;;16.70;;
36433;SDS011;31691;51.972;5.672;2023-08-21T17:36:37;18.38;;;16.77;;
36433;SDS011;31691;51.972;5.672;2023-08-21T17:41:39;18.55;;;16.85;;
36433;SDS011;31691;51.972;5.672;2023-08-21T17:46:42;21.38;;;16.95;;
36433;SDS011;31691;51.972;5.672;2023-08-21T17:51:44;18.67;;;16.95;;
36433;SDS011;31691;51.972;5.672;2023-08-21T17:56:46;21.40;;;16.92;;
36433;SDS011;31691;51.972;5.672;2023-08-21T18:01:49;18.67;;;16.85;;
36433;SDS011;31691;51.972;5.672;2023-08-21T18:06:51;21.73;;;17.60;;
36433;SDS011;31691;51.972;5.672;2023-08-21T18:11:53;19.55;;;17.25;;
36433;SDS011;31691;51.972;5.672;2023-08-21T18:16:59;18.98;;;17.30;;
36433;SDS011;31691;51.972;5.672;2023-08-21T18:22:05;18.77;;;16.85;;
36433;SDS011;31691;51.972;5.672;2023-08-21T18:27:07;16.98;;;15.57;;
36433;SDS011;31691;51.972;5.672;2023-08-21T18:32:11;18.05;;;16.13;;
36433;SDS011;31691;51.972;5.672;2023-08-21T18:37:14;18.25;;;16.02;;
36433;SDS011;31691;51.972;5.672;2023-08-21T18:42:16;18.10;;;16.23;;
36433;SDS011;31691;51.972;5.672;2023-08-21T18:47:18;18.17;;;16.45;;
36433;SDS011;31691;51.972;5.672;2023-08-21T18:52:21;17.70;;;16.17;;
36433;SDS011;31691;51.972;5.672;2023-08-21T18:57:23;19.25;;;17.10;;
36433;SDS011;31691;51.972;5.672;2023-08-21T19:02:26;19.48;;;17.23;;
36433;SDS011;31691;51.972;5.672;2023-08-21T19:07:28;18.42;;;16.67;;
36433;SDS011;31691;51.972;5.672;2023-08-21T19:12:30;18.52;;;16.88;;
36433;SDS011;31691;51.972;5.672;2023-08-21T19:17:32;17.92;;;16.13;;
36433;SDS011;31691;51.972;5.672;2023-08-21T19:22:35;18.65;;;16.80;;
36433;SDS011;31691;51.972;5.672;2023-08-21T19:27:38;18.13;;;16.63;;
36433;SDS011;31691;51.972;5.672;2023-08-21T19:32:40;18.95;;;16.98;;
36433;SDS011;31691;51.972;5.672;2023-08-21T19:37:44;20.00;;;18.30;;
36433;SDS011;31691;51.972;5.672;2023-08-21T19:42:46;19.02;;;16.73;;
36433;SDS011;31691;51.972;5.672;2023-08-21T19:47:48;18.77;;;16.77;;
36433;SDS011;31691;51.972;5.672;2023-08-21T19:52:51;23.35;;;18.45;;
36433;SDS011;31691;51.972;5.672;2023-08-21T19:57:53;20.88;;;17.55;;
36433;SDS011;31691;51.972;5.672;2023-08-21T20:02:55;17.30;;;15.63;;
36433;SDS011;31691;51.972;5.672;2023-08-21T20:07:57;19.05;;;15.07;;
36433;SDS011;31691;51.972;5.672;2023-08-21T20:13:00;17.08;;;15.27;;
36433;SDS011;31691;51.972;5.672;2023-08-21T20:18:03;15.57;;;14.35;;
36433;SDS011;31691;51.972;5.672;2023-08-21T20:23:06;17.02;;;15.43;;
36433;SDS011;31691;51.972;5.672;2023-08-21T20:28:09;15.02;;;13.73;;
36433;SDS011;31691;51.972;5.672;2023-08-21T20:33:11;15.63;;;14.10;;
36433;SDS011;31691;51.972;5.672;2023-08-21T20:38:13;15.43;;;14.02;;
36433;SDS011;31691;51.972;5.672;2023-08-21T20:43:15;15.25;;;13.82;;
36433;SDS011;31691;51.972;5.672;2023-08-21T20:48:17;14.43;;;13.32;;
36433;SDS011;31691;51.972;5.672;2023-08-21T20:53:20;14.55;;;13.25;;
36433;SDS011;31691;51.972;5.672;2023-08-21T20:58:23;15.50;;;13.80;;
36433;SDS011;31691;51.972;5.672;2023-08-21T21:03:26;15.07;;;13.65;;
36433;SDS011;31691;51.972;5.672;2023-08-21T21:08:29;15.43;;;13.00;;
36433;SDS011;31691;51.972;5.672;2023-08-21T21:13:31;14.85;;;13.48;;
36433;SDS011;31691;51.972;5.672;2023-08-21T21:18:33;14.93;;;13.40;;
36433;SDS011;31691;51.972;5.672;2023-08-21T21:23:35;14.88;;;13.38;;
36433;SDS011;31691;51.972;5.672;2023-08-21T21:28:37;15.57;;;13.98;;
36433;SDS011;31691;51.972;5.672;2023-08-21T21:33:40;13.82;;;12.60;;
36433;SDS011;31691;51.972;5.672;2023-08-21T21:38:42;19.20;;;13.40;;
36433;SDS011;31691;51.972;5.672;2023-08-21T21:43:44;13.85;;;12.55;;
36433;SDS011;31691;51.972;5.672;2023-08-21T21:48:46;13.45;;;12.10;;
36433;SDS011;31691;51.972;5.672;2023-08-21T21:53:49;14.18;;;12.45;;
36433;SDS011;31691;51.972;5.672;2023-08-21T21:58:51;14.13;;;12.82;;
36433;SDS011;31691;51.972;5.672;2023-08-21T22:03:54;13.93;;;12.55;;
36433;SDS011;31691;51.972;5.672;2023-08-21T22:08:56;14.02;;;12.68;;
36433;SDS011;31691;51.972;5.672;2023-08-21T22:13:59;14.07;;;12.85;;
36433;SDS011;31691;51.972;5.672;2023-08-21T22:19:01;13.60;;;12.35;;
36433;SDS011;31691;51.972;5.672;2023-08-21T22:24:03;13.45;;;12.45;;
36433;SDS011;31691;51.972;5.672;2023-08-21T22:29:06;14.10;;;13.00;;
36433;SDS011;31691;51.972;5.672;2023-08-21T22:34:08;14.10;;;12.80;;
36433;SDS011;31691;51.972;5.672;2023-08-21T22:39:11;13.77;;;12.68;;
36433;SDS011;31691;51.972;5.672;2023-08-21T22:44:13;14.23;;;13.02;;
36433;SDS011;31691;51.972;5.672;2023-08-21T22:49:15;14.27;;;13.18;;
36433;SDS011;31691;51.972;5.672;2023-08-21T22:54:18;14.50;;;13.10;;
36433;SDS011;31691;51.972;5.672;2023-08-21T22:59:21;15.93;;;14.45;;
36433;SDS011;31691;51.972;5.672;2023-08-21T23:04:23;15.70;;;14.18;;
36433;SDS011;31691;51.972;5.672;2023-08-21T23:09:25;14.50;;;13.30;;
36433;SDS011;31691;51.972;5.672;2023-08-21T23:14:29;14.32;;;12.98;;
36433;SDS011;31691;51.972;5.672;2023-08-21T23:19:32;15.20;;;13.70;;
36433;SDS011;31691;51.972;5.672;2023-08-21T23:24:34;13.93;;;12.70;;
36433;SDS011;31691;51.972;5.672;2023-08-21T23:29:36;14.90;;;13.40;;
36433;SDS011;31691;51.972;5.672;2023-08-21T23:34:39;14.13;;;12.98;;
36433;SDS011;31691;51.972;5.672;2023-08-21T23:39:41;16.50;;;14.70;;
36433;SDS011;31691;51.972;5.672;2023-08-21T23:44:43;16.08;;;14.70;;
36433;SDS011;31691;51.972;5.672;2023-08-21T23:49:45;18.30;;;16.63;;
36433;SDS011;31691;51.972;5.672;2023-08-21T23:54:48;17.80;;;16.10;;
36433;SDS011;31691;51.972;5.672;2023-08-21T23:59:50;17.77;;;15.55;;
